sensor_id;sensor_type;location;lat;lon;timestamp;pressure;altitude;pressure_sealevel;temperature
24278;BMP280;12394;42.692;23.314;2023-04-01T00:01:43;94142.50;;;12.43
24278;BMP280;12394;42.692;23.314;2023-04-01T00:04:09;94142.69;;;12.36
24278;BMP280;12394;42.692;23.314;2023-04-01T00:06:34;94135.63;;;12.21
24278;BMP280;12394;42.692;23.314;2023-04-01T00:09:00;94145.19;;;12.27
24278;BMP280;12394;42.692;23.314;2023-04-01T00:11:25;94136.03;;;12.19
24278;BMP280;12394;42.692;23.314;2023-04-01T00:13:53;94122.16;;;12.06
24278;BMP280;12394;42.692;23.314;2023-04-01T00:16:18;94139.84;;;12.02
24278;BMP280;12394;42.692;23.314;2023-04-01T00:18:44;94138.34;;;11.88
24278;BMP280;12394;42.692;23.314;2023-04-01T00:21:09;94152.56;;;11.87
24278;BMP280;12394;42.692;23.314;2023-04-01T00:23:35;94149.41;;;11.80
24278;BMP280;12394;42.692;23.314;2023-04-01T00:26:01;94143.97;;;11.71
24278;BMP280;12394;42.692;23.314;2023-04-01T00:28:27;94145.97;;;11.67
24278;BMP280;12394;42.692;23.314;2023-04-01T00:30:53;94145.31;;;11.63
24278;BMP280;12394;42.692;23.314;2023-04-01T00:33:18;94128.44;;;11.47
24278;BMP280;12394;42.692;23.314;2023-04-01T00:35:45;94135.00;;;11.55
24278;BMP280;12394;42.692;23.314;2023-04-01T00:38:12;94121.97;;;11.36
24278;BMP280;12394;42.692;23.314;2023-04-01T00:40:44;94133.94;;;11.53
24278;BMP280;12394;42.692;23.314;2023-04-01T00:43:15;94129.50;;;11.50
24278;BMP280;12394;42.692;23.314;2023-04-01T00:45:44;94129.34;;;11.57
24278;BMP280;12394;42.692;23.314;2023-04-01T00:48:15;94126.00;;;11.56
24278;BMP280;12394;42.692;23.314;2023-04-01T00:50:44;94111.31;;;11.59
24278;BMP280;12394;42.692;23.314;2023-04-01T00:53:11;94112.75;;;11.47
24278;BMP280;12394;42.692;23.314;2023-04-01T00:55:41;94116.84;;;11.48
24278;BMP280;12394;42.692;23.314;2023-04-01T00:58:13;94099.66;;;11.47
24278;BMP280;12394;42.692;23.314;2023-04-01T01:00:40;94092.09;;;11.49
24278;BMP280;12394;42.692;23.314;2023-04-01T01:03:05;94094.06;;;11.45
24278;BMP280;12394;42.692;23.314;2023-04-01T01:10:49;94080.97;;;11.45
24278;BMP280;12394;42.692;23.314;2023-04-01T01:15:51;94068.91;;;11.35
24278;BMP280;12394;42.692;23.314;2023-04-01T01:18:19;94057.09;;;11.27
24278;BMP280;12394;42.692;23.314;2023-04-01T01:34:42;94043.41;;;11.52
24278;BMP280;12394;42.692;23.314;2023-04-01T01:37:15;94032.88;;;11.39
24278;BMP280;12394;42.692;23.314;2023-04-01T01:39:43;94045.72;;;11.34
24278;BMP280;12394;42.692;23.314;2023-04-01T01:42:13;94042.13;;;11.28
24278;BMP280;12394;42.692;23.314;2023-04-01T01:44:42;94047.63;;;11.33
24278;BMP280;12394;42.692;23.314;2023-04-01T01:47:09;94044.09;;;11.24
24278;BMP280;12394;42.692;23.314;2023-04-01T01:49:36;94045.09;;;11.30
24278;BMP280;12394;42.692;23.314;2023-04-01T01:52:04;94037.47;;;11.35
24278;BMP280;12394;42.692;23.314;2023-04-01T01:54:29;94023.91;;;11.24
24278;BMP280;12394;42.692;23.314;2023-04-01T01:57:03;94036.44;;;11.45
24278;BMP280;12394;42.692;23.314;2023-04-01T01:59:30;94034.03;;;11.38
24278;BMP280;12394;42.692;23.314;2023-04-01T02:01:58;94033.16;;;11.57
24278;BMP280;12394;42.692;23.314;2023-04-01T02:04:25;94021.81;;;11.48
24278;BMP280;12394;42.692;23.314;2023-04-01T02:06:59;94032.94;;;11.52
24278;BMP280;12394;42.692;23.314;2023-04-01T02:09:26;94023.94;;;11.53
24278;BMP280;12394;42.692;23.314;2023-04-01T02:11:56;94022.34;;;11.55
24278;BMP280;12394;42.692;23.314;2023-04-01T02:14:25;94021.53;;;11.58
24278;BMP280;12394;42.692;23.314;2023-04-01T02:16:56;94011.34;;;11.77
24278;BMP280;12394;42.692;23.314;2023-04-01T02:19:27;94008.56;;;11.68
24278;BMP280;12394;42.692;23.314;2023-04-01T02:22:01;94007.09;;;11.67
24278;BMP280;12394;42.692;23.314;2023-04-01T02:24:30;94006.47;;;11.63
24278;BMP280;12394;42.692;23.314;2023-04-01T02:26:58;94011.72;;;11.63
24278;BMP280;12394;42.692;23.314;2023-04-01T02:29:26;94013.72;;;11.71
24278;BMP280;12394;42.692;23.314;2023-04-01T02:31:52;94013.44;;;11.82
24278;BMP280;12394;42.692;23.314;2023-04-01T02:34:19;94002.44;;;11.74
24278;BMP280;12394;42.692;23.314;2023-04-01T02:36:47;94016.50;;;11.80
24278;BMP280;12394;42.692;23.314;2023-04-01T02:39:13;94008.31;;;11.78
24278;BMP280;12394;42.692;23.314;2023-04-01T02:41:43;94019.31;;;11.86
24278;BMP280;12394;42.692;23.314;2023-04-01T02:44:10;94019.66;;;11.88
24278;BMP280;12394;42.692;23.314;2023-04-01T02:46:36;94026.28;;;11.92
24278;BMP280;12394;42.692;23.314;2023-04-01T02:49:02;93992.84;;;11.68
24278;BMP280;12394;42.692;23.314;2023-04-01T02:51:27;94021.44;;;11.91
24278;BMP280;12394;42.692;23.314;2023-04-01T02:53:53;94039.28;;;11.96
24278;BMP280;12394;42.692;23.314;2023-04-01T02:56:18;94046.34;;;11.99
24278;BMP280;12394;42.692;23.314;2023-04-01T02:58:45;94036.59;;;12.12
24278;BMP280;12394;42.692;23.314;2023-04-01T03:01:11;94036.34;;;11.94
24278;BMP280;12394;42.692;23.314;2023-04-01T03:03:37;94044.22;;;11.94
24278;BMP280;12394;42.692;23.314;2023-04-01T03:06:08;94050.78;;;11.86
24278;BMP280;12394;42.692;23.314;2023-04-01T03:08:34;94019.56;;;11.63
24278;BMP280;12394;42.692;23.314;2023-04-01T03:10:59;94045.72;;;11.79
24278;BMP280;12394;42.692;23.314;2023-04-01T03:13:25;94047.84;;;11.84
24278;BMP280;12394;42.692;23.314;2023-04-01T03:15:50;94053.94;;;11.81
24278;BMP280;12394;42.692;23.314;2023-04-01T03:18:16;94048.28;;;11.66
24278;BMP280;12394;42.692;23.314;2023-04-01T03:20:41;94057.69;;;11.80
24278;BMP280;12394;42.692;23.314;2023-04-01T03:23:07;94055.06;;;11.80
24278;BMP280;12394;42.692;23.314;2023-04-01T03:25:33;94063.66;;;11.80
24278;BMP280;12394;42.692;23.314;2023-04-01T03:27:58;94078.09;;;11.72
24278;BMP280;12394;42.692;23.314;2023-04-01T03:30:25;94061.06;;;11.64
24278;BMP280;12394;42.692;23.314;2023-04-01T03:32:50;94066.72;;;11.63
24278;BMP280;12394;42.692;23.314;2023-04-01T03:35:16;94055.72;;;11.68
24278;BMP280;12394;42.692;23.314;2023-04-01T03:37:42;94058.34;;;11.68
24278;BMP280;12394;42.692;23.314;2023-04-01T03:40:07;94051.84;;;11.88
24278;BMP280;12394;42.692;23.314;2023-04-01T03:42:33;94032.88;;;11.84
24278;BMP280;12394;42.692;23.314;2023-04-01T03:44:59;94030.34;;;11.81
24278;BMP280;12394;42.692;23.314;2023-04-01T03:47:24;94005.09;;;11.87
24278;BMP280;12394;42.692;23.314;2023-04-01T03:49:49;93994.41;;;11.94
24278;BMP280;12394;42.692;23.314;2023-04-01T03:52:15;93975.56;;;11.99
24278;BMP280;12394;42.692;23.314;2023-04-01T03:54:40;93986.97;;;11.92
24278;BMP280;12394;42.692;23.314;2023-04-01T03:57:06;93953.13;;;11.98
24278;BMP280;12394;42.692;23.314;2023-04-01T03:59:31;93958.13;;;12.05
24278;BMP280;12394;42.692;23.314;2023-04-01T04:01:57;93951.41;;;11.79
24278;BMP280;12394;42.692;23.314;2023-04-01T04:04:22;93949.94;;;11.78
24278;BMP280;12394;42.692;23.314;2023-04-01T04:06:48;93941.84;;;11.72
24278;BMP280;12394;42.692;23.314;2023-04-01T04:09:13;93939.63;;;11.71
24278;BMP280;12394;42.692;23.314;2023-04-01T04:11:38;93899.47;;;11.61
24278;BMP280;12394;42.692;23.314;2023-04-01T04:14:04;93918.44;;;11.65
24278;BMP280;12394;42.692;23.314;2023-04-01T04:16:30;93920.31;;;11.65
24278;BMP280;12394;42.692;23.314;2023-04-01T04:18:56;93921.81;;;11.66
24278;BMP280;12394;42.692;23.314;2023-04-01T04:21:21;93924.72;;;11.55
24278;BMP280;12394;42.692;23.314;2023-04-01T04:23:47;93918.72;;;11.42
24278;BMP280;12394;42.692;23.314;2023-04-01T04:26:14;93889.88;;;11.29
24278;BMP280;12394;42.692;23.314;2023-04-01T04:28:40;93922.91;;;11.39
24278;BMP280;12394;42.692;23.314;2023-04-01T04:31:06;93884.75;;;11.26
24278;BMP280;12394;42.692;23.314;2023-04-01T04:33:33;93889.88;;;11.29
24278;BMP280;12394;42.692;23.314;2023-04-01T04:35:59;93884.91;;;11.19
24278;BMP280;12394;42.692;23.314;2023-04-01T04:38:25;93895.84;;;11.30
24278;BMP280;12394;42.692;23.314;2023-04-01T04:40:50;93906.84;;;11.37
24278;BMP280;12394;42.692;23.314;2023-04-01T04:43:17;93898.59;;;11.39
24278;BMP280;12394;42.692;23.314;2023-04-01T04:45:43;93909.31;;;11.44
24278;BMP280;12394;42.692;23.314;2023-04-01T04:48:10;93875.88;;;11.48
24278;BMP280;12394;42.692;23.314;2023-04-01T04:50:39;93873.16;;;11.52
24278;BMP280;12394;42.692;23.314;2023-04-01T04:53:05;93869.94;;;11.60
24278;BMP280;12394;42.692;23.314;2023-04-01T04:55:32;93882.91;;;11.64
24278;BMP280;12394;42.692;23.314;2023-04-01T04:57:57;93890.56;;;11.58
24278;BMP280;12394;42.692;23.314;2023-04-01T05:00:23;93898.50;;;11.55
24278;BMP280;12394;42.692;23.314;2023-04-01T05:02:48;93887.03;;;11.78
24278;BMP280;12394;42.692;23.314;2023-04-01T05:05:14;93857.16;;;11.63
24278;BMP280;12394;42.692;23.314;2023-04-01T05:07:39;93867.34;;;11.73
24278;BMP280;12394;42.692;23.314;2023-04-01T05:10:05;93855.59;;;11.78
24278;BMP280;12394;42.692;23.314;2023-04-01T05:12:30;93857.28;;;11.72
24278;BMP280;12394;42.692;23.314;2023-04-01T05:14:57;93865.66;;;11.92
24278;BMP280;12394;42.692;23.314;2023-04-01T05:17:23;93851.72;;;11.95
24278;BMP280;12394;42.692;23.314;2023-04-01T05:19:48;93848.25;;;11.73
24278;BMP280;12394;42.692;23.314;2023-04-01T05:22:14;93839.75;;;11.56
24278;BMP280;12394;42.692;23.314;2023-04-01T05:24:39;93809.06;;;11.44
24278;BMP280;12394;42.692;23.314;2023-04-01T05:27:05;93812.41;;;11.44
24278;BMP280;12394;42.692;23.314;2023-04-01T05:29:30;93818.16;;;11.65
24278;BMP280;12394;42.692;23.314;2023-04-01T05:31:55;93825.19;;;11.68
24278;BMP280;12394;42.692;23.314;2023-04-01T05:34:21;93841.84;;;11.61
24278;BMP280;12394;42.692;23.314;2023-04-01T05:36:46;93852.06;;;11.84
24278;BMP280;12394;42.692;23.314;2023-04-01T05:39:11;93837.06;;;11.85
24278;BMP280;12394;42.692;23.314;2023-04-01T05:41:38;93841.97;;;11.83
24278;BMP280;12394;42.692;23.314;2023-04-01T05:44:04;93831.59;;;11.92
24278;BMP280;12394;42.692;23.314;2023-04-01T05:46:30;93804.06;;;11.75
24278;BMP280;12394;42.692;23.314;2023-04-01T05:48:56;93836.50;;;12.15
24278;BMP280;12394;42.692;23.314;2023-04-01T05:51:21;93807.25;;;12.17
24278;BMP280;12394;42.692;23.314;2023-04-01T05:53:47;93828.78;;;12.46
24278;BMP280;12394;42.692;23.314;2023-04-01T05:56:12;93815.31;;;12.57
24278;BMP280;12394;42.692;23.314;2023-04-01T05:58:38;93833.56;;;12.60
24278;BMP280;12394;42.692;23.314;2023-04-01T06:01:09;93793.19;;;12.58
24278;BMP280;12394;42.692;23.314;2023-04-01T06:03:35;93811.88;;;13.03
24278;BMP280;12394;42.692;23.314;2023-04-01T06:06:01;93824.09;;;13.19
24278;BMP280;12394;42.692;23.314;2023-04-01T06:08:27;93811.28;;;13.52
24278;BMP280;12394;42.692;23.314;2023-04-01T06:13:35;93821.56;;;14.08
24278;BMP280;12394;42.692;23.314;2023-04-01T06:16:19;93827.03;;;14.41
24278;BMP280;12394;42.692;23.314;2023-04-01T06:18:55;93824.16;;;14.57
24278;BMP280;12394;42.692;23.314;2023-04-01T06:24:46;93820.34;;;14.76
24278;BMP280;12394;42.692;23.314;2023-04-01T06:27:37;93828.53;;;14.78
24278;BMP280;12394;42.692;23.314;2023-04-01T06:30:30;93821.22;;;14.73
24278;BMP280;12394;42.692;23.314;2023-04-01T06:33:24;93810.50;;;14.95
24278;BMP280;12394;42.692;23.314;2023-04-01T06:36:24;93801.19;;;14.94
24278;BMP280;12394;42.692;23.314;2023-04-01T06:49:56;93795.63;;;14.83
24278;BMP280;12394;42.692;23.314;2023-04-01T06:55:43;93779.56;;;14.72
24278;BMP280;12394;42.692;23.314;2023-04-01T06:58:38;93765.06;;;14.67
24278;BMP280;12394;42.692;23.314;2023-04-01T07:01:09;93768.56;;;14.37
24278;BMP280;12394;42.692;23.314;2023-04-01T07:03:44;93779.69;;;14.41
24278;BMP280;12394;42.692;23.314;2023-04-01T07:06:32;93791.81;;;14.38
24278;BMP280;12394;42.692;23.314;2023-04-01T07:09:05;93781.28;;;14.38
24278;BMP280;12394;42.692;23.314;2023-04-01T07:11:34;93764.03;;;14.46
24278;BMP280;12394;42.692;23.314;2023-04-01T07:14:20;93769.13;;;14.77
24278;BMP280;12394;42.692;23.314;2023-04-01T07:17:15;93766.38;;;14.90
24278;BMP280;12394;42.692;23.314;2023-04-01T07:19:52;93757.13;;;14.94
24278;BMP280;12394;42.692;23.314;2023-04-01T07:24:59;93758.75;;;14.83
24278;BMP280;12394;42.692;23.314;2023-04-01T07:27:26;93762.84;;;14.93
24278;BMP280;12394;42.692;23.314;2023-04-01T07:29:52;93771.16;;;14.91
24278;BMP280;12394;42.692;23.314;2023-04-01T07:40:52;93780.59;;;15.34
24278;BMP280;12394;42.692;23.314;2023-04-01T07:54:06;93761.09;;;15.41
24278;BMP280;12394;42.692;23.314;2023-04-01T07:57:02;93752.91;;;15.39
24278;BMP280;12394;42.692;23.314;2023-04-01T08:05:46;93739.44;;;15.37
24278;BMP280;12394;42.692;23.314;2023-04-01T08:18:39;93723.00;;;16.08
24278;BMP280;12394;42.692;23.314;2023-04-01T08:21:17;93705.97;;;16.09
24278;BMP280;12394;42.692;23.314;2023-04-01T08:23:47;93696.75;;;16.28
24278;BMP280;12394;42.692;23.314;2023-04-01T08:34:20;93684.00;;;16.94
24278;BMP280;12394;42.692;23.314;2023-04-01T08:36:54;93682.63;;;17.48
24278;BMP280;12394;42.692;23.314;2023-04-01T08:39:34;93670.19;;;18.55
24278;BMP280;12394;42.692;23.314;2023-04-01T08:45:07;93640.19;;;23.80
24278;BMP280;12394;42.692;23.314;2023-04-01T08:50:35;93653.72;;;27.54
24278;BMP280;12394;42.692;23.314;2023-04-01T08:56:17;93648.44;;;29.45
24278;BMP280;12394;42.692;23.314;2023-04-01T09:04:39;93663.25;;;33.08
24278;BMP280;12394;42.692;23.314;2023-04-01T09:18:09;93638.22;;;25.24
24278;BMP280;12394;42.692;23.314;2023-04-01T09:20:50;93633.91;;;24.20
24278;BMP280;12394;42.692;23.314;2023-04-01T09:43:43;93601.56;;;20.94
24278;BMP280;12394;42.692;23.314;2023-04-01T09:49:14;93575.00;;;20.83
24278;BMP280;12394;42.692;23.314;2023-04-01T10:15:42;93545.50;;;20.81
24278;BMP280;12394;42.692;23.314;2023-04-01T10:42:13;93515.72;;;19.71
24278;BMP280;12394;42.692;23.314;2023-04-01T10:58:59;93479.41;;;18.13
24278;BMP280;12394;42.692;23.314;2023-04-01T11:04:51;93466.50;;;17.95
24278;BMP280;12394;42.692;23.314;2023-04-01T11:18:51;93460.88;;;18.13
24278;BMP280;12394;42.692;23.314;2023-04-01T11:32:43;93544.38;;;18.14
24278;BMP280;12394;42.692;23.314;2023-04-01T11:40:54;93585.41;;;17.03
24278;BMP280;12394;42.692;23.314;2023-04-01T11:43:34;93620.13;;;16.96
24278;BMP280;12394;42.692;23.314;2023-04-01T11:46:11;93632.84;;;16.09
24278;BMP280;12394;42.692;23.314;2023-04-01T11:48:51;93661.72;;;15.32
24278;BMP280;12394;42.692;23.314;2023-04-01T11:51:59;93685.09;;;14.55
24278;BMP280;12394;42.692;23.314;2023-04-01T11:57:13;93737.06;;;13.78
24278;BMP280;12394;42.692;23.314;2023-04-01T12:08:15;93732.00;;;12.91
24278;BMP280;12394;42.692;23.314;2023-04-01T12:10:49;93720.78;;;12.91
24278;BMP280;12394;42.692;23.314;2023-04-01T12:13:39;93718.97;;;12.79
24278;BMP280;12394;42.692;23.314;2023-04-01T12:21:27;93713.97;;;13.82
24278;BMP280;12394;42.692;23.314;2023-04-01T12:26:59;93706.53;;;14.81
24278;BMP280;12394;42.692;23.314;2023-04-01T12:32:51;93731.41;;;14.80
24278;BMP280;12394;42.692;23.314;2023-04-01T12:38:08;93741.06;;;14.19
24278;BMP280;12394;42.692;23.314;2023-04-01T12:41:07;93736.50;;;13.93
24278;BMP280;12394;42.692;23.314;2023-04-01T13:09:08;93696.72;;;13.14
24278;BMP280;12394;42.692;23.314;2023-04-01T13:31:49;93624.34;;;14.77
24278;BMP280;12394;42.692;23.314;2023-04-01T13:40:33;93604.53;;;15.24
24278;BMP280;12394;42.692;23.314;2023-04-01T13:43:17;93586.28;;;15.44
24278;BMP280;12394;42.692;23.314;2023-04-01T13:52:28;93591.63;;;16.56
24278;BMP280;12394;42.692;23.314;2023-04-01T13:55:27;93576.13;;;16.93
24278;BMP280;12394;42.692;23.314;2023-04-01T13:58:11;93584.19;;;17.04
24278;BMP280;12394;42.692;23.314;2023-04-01T14:04:08;93578.91;;;17.04
24278;BMP280;12394;42.692;23.314;2023-04-01T14:07:00;93562.94;;;17.13
24278;BMP280;12394;42.692;23.314;2023-04-01T14:09:37;93561.03;;;17.13
24278;BMP280;12394;42.692;23.314;2023-04-01T14:31:59;93506.94;;;17.09
24278;BMP280;12394;42.692;23.314;2023-04-01T14:42:59;93523.06;;;17.31
24278;BMP280;12394;42.692;23.314;2023-04-01T14:48:36;93521.78;;;17.26
24278;BMP280;12394;42.692;23.314;2023-04-01T14:51:34;93530.34;;;17.16
24278;BMP280;12394;42.692;23.314;2023-04-01T14:56:40;93520.25;;;16.79
24278;BMP280;12394;42.692;23.314;2023-04-01T15:02:07;93519.19;;;16.71
24278;BMP280;12394;42.692;23.314;2023-04-01T15:07:18;93529.00;;;16.56
24278;BMP280;12394;42.692;23.314;2023-04-01T15:13:12;93481.03;;;15.93
24278;BMP280;12394;42.692;23.314;2023-04-01T15:34:50;93544.84;;;15.21
24278;BMP280;12394;42.692;23.314;2023-04-01T15:47:42;93630.16;;;14.90
24278;BMP280;12394;42.692;23.314;2023-04-01T15:53:08;93728.09;;;12.96
24278;BMP280;12394;42.692;23.314;2023-04-01T15:55:41;93720.81;;;12.47
24278;BMP280;12394;42.692;23.314;2023-04-01T16:09:26;93793.78;;;9.98
24278;BMP280;12394;42.692;23.314;2023-04-01T16:22:17;93815.47;;;9.27
24278;BMP280;12394;42.692;23.314;2023-04-01T16:25:07;93801.44;;;9.21
24278;BMP280;12394;42.692;23.314;2023-04-01T16:27:51;93815.00;;;9.32
24278;BMP280;12394;42.692;23.314;2023-04-01T16:30:38;93820.47;;;9.37
24278;BMP280;12394;42.692;23.314;2023-04-01T16:35:59;93832.00;;;9.40
24278;BMP280;12394;42.692;23.314;2023-04-01T16:38:37;93837.53;;;9.42
24278;BMP280;12394;42.692;23.314;2023-04-01T16:41:29;93847.41;;;9.34
24278;BMP280;12394;42.692;23.314;2023-04-01T16:43:59;93828.47;;;9.30
24278;BMP280;12394;42.692;23.314;2023-04-01T16:46:40;93846.78;;;9.27
24278;BMP280;12394;42.692;23.314;2023-04-01T16:51:54;93829.22;;;9.11
24278;BMP280;12394;42.692;23.314;2023-04-01T16:57:31;93827.75;;;9.10
24278;BMP280;12394;42.692;23.314;2023-04-01T17:05:40;93844.41;;;8.97
24278;BMP280;12394;42.692;23.314;2023-04-01T17:13:59;93882.13;;;9.12
24278;BMP280;12394;42.692;23.314;2023-04-01T17:17:09;93892.66;;;9.08
24278;BMP280;12394;42.692;23.314;2023-04-01T17:30:30;93894.78;;;8.93
24278;BMP280;12394;42.692;23.314;2023-04-01T17:33:20;93896.63;;;8.93
24278;BMP280;12394;42.692;23.314;2023-04-01T17:55:37;93925.63;;;8.75
24278;BMP280;12394;42.692;23.314;2023-04-01T17:58:22;93930.94;;;8.68
24278;BMP280;12394;42.692;23.314;2023-04-01T18:03:54;93949.09;;;8.52
24278;BMP280;12394;42.692;23.314;2023-04-01T18:06:41;93962.50;;;8.51
24278;BMP280;12394;42.692;23.314;2023-04-01T18:09:18;93950.28;;;8.47
24278;BMP280;12394;42.692;23.314;2023-04-01T18:15:11;93962.91;;;8.49
24278;BMP280;12394;42.692;23.314;2023-04-01T18:20:33;93979.47;;;8.62
24278;BMP280;12394;42.692;23.314;2023-04-01T18:23:19;93980.09;;;8.70
24278;BMP280;12394;42.692;23.314;2023-04-01T18:25:48;93983.81;;;8.69
24278;BMP280;12394;42.692;23.314;2023-04-01T18:31:20;93969.59;;;8.73
24278;BMP280;12394;42.692;23.314;2023-04-01T18:39:08;93984.28;;;8.64
24278;BMP280;12394;42.692;23.314;2023-04-01T18:44:46;93975.28;;;8.68
24278;BMP280;12394;42.692;23.314;2023-04-01T18:52:43;93975.38;;;8.61
24278;BMP280;12394;42.692;23.314;2023-04-01T18:57:58;93971.69;;;8.59
24278;BMP280;12394;42.692;23.314;2023-04-01T19:00:41;93985.38;;;8.66
24278;BMP280;12394;42.692;23.314;2023-04-01T19:05:47;93990.91;;;8.68
24278;BMP280;12394;42.692;23.314;2023-04-01T19:08:32;93996.78;;;8.76
24278;BMP280;12394;42.692;23.314;2023-04-01T19:11:17;93997.28;;;8.67
24278;BMP280;12394;42.692;23.314;2023-04-01T19:19:52;94011.91;;;8.84
24278;BMP280;12394;42.692;23.314;2023-04-01T19:28:29;94022.66;;;9.10
24278;BMP280;12394;42.692;23.314;2023-04-01T19:41:44;94032.66;;;8.91
24278;BMP280;12394;42.692;23.314;2023-04-01T19:46:46;94044.44;;;8.76
24278;BMP280;12394;42.692;23.314;2023-04-01T19:49:30;94050.56;;;8.89
24278;BMP280;12394;42.692;23.314;2023-04-01T19:52:39;94053.19;;;8.89
24278;BMP280;12394;42.692;23.314;2023-04-01T19:57:47;94057.59;;;8.92
24278;BMP280;12394;42.692;23.314;2023-04-01T20:00:30;94050.69;;;9.06
24278;BMP280;12394;42.692;23.314;2023-04-01T20:06:28;94051.56;;;8.99
24278;BMP280;12394;42.692;23.314;2023-04-01T20:14:51;94040.00;;;8.73
24278;BMP280;12394;42.692;23.314;2023-04-01T20:17:22;94042.66;;;8.70
24278;BMP280;12394;42.692;23.314;2023-04-01T20:25:26;94054.75;;;8.83
24278;BMP280;12394;42.692;23.314;2023-04-01T20:28:05;94051.78;;;8.81
24278;BMP280;12394;42.692;23.314;2023-04-01T20:36:46;94068.72;;;8.97
24278;BMP280;12394;42.692;23.314;2023-04-01T20:47:53;94075.47;;;8.94
24278;BMP280;12394;42.692;23.314;2023-04-01T20:50:29;94075.50;;;8.90
24278;BMP280;12394;42.692;23.314;2023-04-01T20:53:16;94065.56;;;8.82
24278;BMP280;12394;42.692;23.314;2023-04-01T21:01:25;94078.16;;;8.87
24278;BMP280;12394;42.692;23.314;2023-04-01T21:15:19;94097.56;;;8.86
24278;BMP280;12394;42.692;23.314;2023-04-01T21:17:59;94097.59;;;8.82
24278;BMP280;12394;42.692;23.314;2023-04-01T21:36:59;94097.09;;;8.95
24278;BMP280;12394;42.692;23.314;2023-04-01T22:07:22;94102.88;;;9.06
24278;BMP280;12394;42.692;23.314;2023-04-01T22:20:38;94053.53;;;8.65
24278;BMP280;12394;42.692;23.314;2023-04-01T22:23:50;94091.56;;;8.89
24278;BMP280;12394;42.692;23.314;2023-04-01T22:26:39;94100.88;;;8.90
24278;BMP280;12394;42.692;23.314;2023-04-01T22:31:43;94091.16;;;8.90
24278;BMP280;12394;42.692;23.314;2023-04-01T22:34:52;94097.22;;;8.84
24278;BMP280;12394;42.692;23.314;2023-04-01T22:37:36;94096.63;;;8.73
24278;BMP280;12394;42.692;23.314;2023-04-01T22:42:56;94075.94;;;8.62
24278;BMP280;12394;42.692;23.314;2023-04-01T22:48:08;94100.78;;;8.70
24278;BMP280;12394;42.692;23.314;2023-04-01T22:55:40;94087.22;;;8.52
24278;BMP280;12394;42.692;23.314;2023-04-01T22:58:12;94113.13;;;8.66
24278;BMP280;12394;42.692;23.314;2023-04-01T23:00:55;94112.44;;;8.62
24278;BMP280;12394;42.692;23.314;2023-04-01T23:03:34;94103.88;;;8.62
24278;BMP280;12394;42.692;23.314;2023-04-01T23:06:03;94114.34;;;8.58
24278;BMP280;12394;42.692;23.314;2023-04-01T23:11:23;94128.81;;;8.89
24278;BMP280;12394;42.692;23.314;2023-04-01T23:13:57;94100.03;;;8.70
24278;BMP280;12394;42.692;23.314;2023-04-01T23:16:35;94131.81;;;8.88
24278;BMP280;12394;42.692;23.314;2023-04-01T23:19:14;94121.81;;;8.83
24278;BMP280;12394;42.692;23.314;2023-04-01T23:21:45;94118.22;;;8.73
24278;BMP280;12394;42.692;23.314;2023-04-01T23:27:28;94129.34;;;8.77
24278;BMP280;12394;42.692;23.314;2023-04-01T23:29:56;94125.31;;;8.73
24278;BMP280;12394;42.692;23.314;2023-04-01T23:32:25;94143.38;;;8.87
24278;BMP280;12394;42.692;23.314;2023-04-01T23:34:53;94129.25;;;8.84
24278;BMP280;12394;42.692;23.314;2023-04-01T23:37:20;94122.31;;;8.74
24278;BMP280;12394;42.692;23.314;2023-04-01T23:39:51;94133.28;;;8.89
24278;BMP280;12394;42.692;23.314;2023-04-01T23:42:24;94132.16;;;8.90
24278;BMP280;12394;42.692;23.314;2023-04-01T23:44:57;94144.16;;;8.84
24278;BMP280;12394;42.692;23.314;2023-04-01T23:47:34;94134.31;;;8.95
24278;BMP280;12394;42.692;23.314;2023-04-01T23:50:07;94112.63;;;8.75
24278;BMP280;12394;42.692;23.314;2023-04-01T23:52:42;94134.81;;;8.86
24278;BMP280;12394;42.692;23.314;2023-04-01T23:57:36;94127.09;;;8.79
